Time;durP1;ratioP1;P1;durP2;ratioP2;P2;SDS_P1;SDS_P2;PMS_P1;PMS_P2;Temp;Humidity;BMP_temperature;BMP_pressure;BME280_temperature;BME280_humidity;BME280_pressure;Samples;Min_cycle;Max_cycle;Signal;HPM_P1;HPM_P2
2022/04/14 00:00:30;;;;;;;1.93;1.70;;;;;19.50;100893.00;;;;2088006;28;20213;-45
2022/04/14 00:01:30;;;;;;;2.70;1.67;;;;;19.50;100890.00;;;;2087551;28;20209;-45
2022/04/14 00:02:31;;;;;;;1.97;1.77;;;;;19.60;100895.00;;;;2087682;28;20221;-45
2022/04/14 00:03:31;;;;;;;2.37;1.97;;;;;19.50;100895.00;;;;2080621;28;20263;-45
2022/04/14 00:04:35;;;;;;;2.40;1.80;;;;;19.50;100905.00;;;;2079415;28;20256;-46
2022/04/14 00:05:35;;;;;;;3.08;2.00;;;;;19.50;100895.00;;;;2078785;28;20225;-46
2022/04/14 00:06:35;;;;;;;2.07;1.97;;;;;19.60;100892.00;;;;2079598;28;20621;-45
2022/04/14 00:07:36;;;;;;;1.50;1.40;;;;;19.50;100904.00;;;;2078851;28;20205;-45
2022/04/14 00:08:37;;;;;;;1.73;1.63;;;;;19.60;100894.00;;;;2079032;28;20209;-46
2022/04/14 00:09:37;;;;;;;1.63;1.53;;;;;19.60;100897.00;;;;2078938;28;20231;-45
2022/04/14 00:10:38;;;;;;;1.90;1.70;;;;;19.60;100904.00;;;;2079571;28;20210;-45
2022/04/14 00:11:38;;;;;;;1.70;1.60;;;;;19.30;100904.00;;;;2079503;28;20293;-45
2022/04/14 00:12:39;;;;;;;1.50;1.40;;;;;19.50;100899.00;;;;2084121;28;20213;-46
2022/04/14 00:13:39;;;;;;;1.80;1.70;;;;;19.50;100900.00;;;;2087677;28;20703;-46
2022/04/14 00:14:39;;;;;;;1.70;1.50;;;;;19.60;100899.00;;;;2087346;28;20209;-46
2022/04/14 00:15:40;;;;;;;1.90;1.80;;;;;19.60;100901.00;;;;2087167;28;20216;-44
2022/04/14 00:16:40;;;;;;;1.87;1.53;;;;;19.50;100895.00;;;;2087704;28;20609;-44
2022/04/14 00:17:40;;;;;;;1.77;1.67;;;;;19.50;100897.00;;;;2087316;28;20626;-45
2022/04/14 00:18:41;;;;;;;1.77;1.50;;;;;19.60;100896.00;;;;2087650;28;20205;-47
2022/04/14 00:19:41;;;;;;;1.60;1.50;;;;;19.50;100895.00;;;;2086916;28;20292;-46
2022/04/14 00:20:42;;;;;;;1.83;1.70;;;;;19.60;100897.00;;;;2087102;28;20292;-45
2022/04/14 00:21:42;;;;;;;1.87;1.70;;;;;19.50;100891.00;;;;2087488;28;20255;-45
2022/04/14 00:22:42;;;;;;;2.20;2.00;;;;;19.50;100896.00;;;;2087648;28;21109;-45
2022/04/14 00:23:43;;;;;;;2.17;1.70;;;;;19.50;100887.00;;;;2080758;28;20206;-45
2022/04/14 00:24:43;;;;;;;2.13;1.93;;;;;19.50;100895.00;;;;2079324;28;20373;-48
2022/04/14 00:25:43;;;;;;;2.10;1.90;;;;;19.40;100890.00;;;;2078712;28;20229;-47
2022/04/14 00:26:44;;;;;;;2.00;1.80;;;;;19.60;100890.00;;;;2079480;28;20233;-46
2022/04/14 00:27:45;;;;;;;2.10;1.40;;;;;19.50;100891.00;;;;2079333;28;20205;-47
2022/04/14 00:28:46;;;;;;;1.93;1.50;;;;;19.50;100894.00;;;;2079210;28;20228;-46
2022/04/14 00:29:46;;;;;;;2.07;1.87;;;;;19.60;100883.00;;;;2079412;28;20444;-46
2022/04/14 00:30:46;;;;;;;1.90;1.70;;;;;19.50;100890.00;;;;2081336;28;20836;-46
2022/04/14 00:31:47;;;;;;;1.87;1.77;;;;;19.50;100892.00;;;;2087381;28;20239;-46
2022/04/14 00:32:47;;;;;;;1.60;1.50;;;;;19.50;100903.00;;;;2087069;28;20607;-46
2022/04/14 00:33:47;;;;;;;2.03;1.60;;;;;19.50;100895.00;;;;2086807;28;20714;-47
2022/04/14 00:34:48;;;;;;;2.00;1.80;;;;;19.50;100885.00;;;;2086828;28;20585;-46
2022/04/14 00:35:48;;;;;;;2.70;1.80;;;;;19.50;100887.00;;;;2086129;28;20221;-46
2022/04/14 00:36:49;;;;;;;2.07;1.50;;;;;19.50;100884.00;;;;2087519;28;20220;-47
2022/04/14 00:37:49;;;;;;;1.77;1.67;;;;;19.50;100877.00;;;;2086996;28;20690;-46
2022/04/14 00:38:49;;;;;;;1.37;1.23;;;;;19.50;100870.00;;;;2086941;28;20697;-45
2022/04/14 00:39:51;;;;;;;1.90;1.70;;;;;19.50;100880.00;;;;2080969;28;20716;-46
2022/04/14 00:40:52;;;;;;;1.52;1.40;;;;;19.50;100874.00;;;;2079326;28;20300;-46
2022/04/14 00:41:53;;;;;;;1.50;1.40;;;;;19.50;100874.00;;;;2079431;28;24651;-46
2022/04/14 00:42:53;;;;;;;1.90;1.60;;;;;19.50;100869.00;;;;2083000;28;20247;-46
2022/04/14 00:43:54;;;;;;;1.63;1.53;;;;;19.50;100869.00;;;;2078811;28;20272;-46
2022/04/14 00:44:54;;;;;;;1.87;1.43;;;;;19.50;100874.00;;;;2079301;28;20652;-48
2022/04/14 00:45:54;;;;;;;1.60;1.40;;;;;19.50;100865.00;;;;2078584;28;20279;-46
2022/04/14 00:46:55;;;;;;;1.70;1.50;;;;;19.50;100868.00;;;;2079507;28;20694;-46
2022/04/14 00:47:55;;;;;;;2.30;1.70;;;;;19.50;100864.00;;;;2079590;28;20259;-46
2022/04/14 00:48:56;;;;;;;1.77;1.67;;;;;19.50;100861.00;;;;2082299;28;20220;-46
2022/04/14 00:49:56;;;;;;;2.63;1.83;;;;;19.50;100870.00;;;;2077922;28;20697;-46
2022/04/14 00:50:56;;;;;;;1.77;1.40;;;;;19.50;100866.00;;;;2069961;28;20214;-47
2022/04/14 00:51:59;;;;;;;1.77;1.67;;;;;19.50;100860.00;;;;2086396;28;20588;-46
2022/04/14 00:52:59;;;;;;;1.60;1.50;;;;;19.50;100865.00;;;;2086388;28;20216;-46
2022/04/14 00:54:00;;;;;;;2.27;1.50;;;;;19.50;100861.00;;;;2077875;28;20635;-46
2022/04/14 00:55:00;;;;;;;1.50;1.40;;;;;19.50;100859.00;;;;2086474;28;20821;-46
2022/04/14 00:56:00;;;;;;;1.60;1.50;;;;;19.50;100868.00;;;;2086829;28;20258;-46
2022/04/14 00:57:02;;;;;;;1.60;1.50;;;;;19.50;100863.00;;;;2087369;28;20282;-46
2022/04/14 00:58:02;;;;;;;1.92;1.67;;;;;19.50;100862.00;;;;2086460;28;20635;-47
2022/04/14 00:59:02;;;;;;;1.40;1.30;;;;;19.50;100863.00;;;;2082178;28;20252;-46
2022/04/14 01:00:03;;;;;;;1.97;1.80;;;;;19.50;100864.00;;;;2079203;28;20213;-47
2022/04/14 01:01:05;;;;;;;2.27;1.60;;;;;19.50;100871.00;;;;2079026;28;20308;-47
2022/04/14 01:02:05;;;;;;;2.30;1.70;;;;;19.50;100868.00;;;;2079583;28;20255;-56
2022/04/14 01:03:06;;;;;;;1.53;1.43;;;;;19.50;100877.00;;;;2086963;28;20650;-46
2022/04/14 01:04:06;;;;;;;1.97;1.60;;;;;19.50;100882.00;;;;2072347;28;20577;-46
2022/04/14 01:05:09;;;;;;;1.57;1.47;;;;;19.50;100879.00;;;;2069529;28;20645;-49
2022/04/14 01:06:09;;;;;;;1.85;1.70;;;;;19.50;100874.00;;;;2078112;28;20213;-47
2022/04/14 01:07:09;;;;;;;1.97;1.60;;;;;19.50;100883.00;;;;2086225;28;20255;-47
2022/04/14 01:08:10;;;;;;;2.20;1.80;;;;;19.50;100887.00;;;;2086747;28;20208;-46
2022/04/14 01:09:16;;;;;;;1.90;1.80;;;;;19.50;100888.00;;;;2075228;28;20269;-45
2022/04/14 01:10:17;;;;;;;1.55;1.45;;;;;19.50;100884.00;;;;2067974;28;20221;-46
2022/04/14 01:11:17;;;;;;;2.80;1.87;;;;;19.50;100872.00;;;;2081236;28;20198;-46
2022/04/14 01:12:17;;;;;;;2.17;1.93;;;;;19.50;100882.00;;;;2081037;28;20224;-46
2022/04/14 01:13:18;;;;;;;2.20;2.00;;;;;19.50;100878.00;;;;2078512;28;20216;-47
2022/04/14 01:14:26;;;;;;;1.93;1.80;;;;;19.50;100880.00;;;;2086172;28;20225;-46
2022/04/14 01:15:26;;;;;;;1.90;1.67;;;;;19.50;100884.00;;;;2086461;28;20448;-46
2022/04/14 01:16:26;;;;;;;2.07;1.90;;;;;19.50;100876.00;;;;2087408;28;20583;-46
2022/04/14 01:17:27;;;;;;;1.93;1.83;;;;;19.50;100879.00;;;;2086780;28;20911;-46
2022/04/14 01:18:27;;;;;;;2.40;2.20;;;;;19.50;100875.00;;;;2087353;28;20720;-46
2022/04/14 01:19:28;;;;;;;1.90;1.80;;;;;19.50;100878.00;;;;2086386;28;20299;-46
2022/04/14 01:20:28;;;;;;;1.70;1.60;;;;;19.50;100878.00;;;;2086491;28;20582;-46
2022/04/14 01:21:33;;;;;;;1.80;1.70;;;;;19.50;100868.00;;;;2086732;28;20232;-46
2022/04/14 01:22:35;;;;;;;2.25;1.95;;;;;19.50;100863.00;;;;2081634;28;20217;-46
2022/04/14 01:23:42;;;;;;;1.85;1.63;;;;;19.50;100877.00;;;;2079140;28;21054;-46
2022/04/14 01:24:43;;;;;;;1.95;1.85;;;;;19.50;100865.00;;;;2081655;28;20283;-46
2022/04/14 01:25:43;;;;;;;2.17;1.80;;;;;19.50;100867.00;;;;2085631;28;20213;-46
2022/04/14 01:26:44;;;;;;;2.00;1.50;;;;;19.50;100856.00;;;;2086788;28;20826;-46
2022/04/14 01:27:44;;;;;;;1.50;1.40;;;;;19.50;100858.00;;;;2077993;28;20221;-46
2022/04/14 01:28:44;;;;;;;1.93;1.80;;;;;19.50;100860.00;;;;2085977;28;20275;-47
2022/04/14 01:29:46;;;;;;;1.93;1.70;;;;;19.50;100862.00;;;;2086879;28;20215;-47
2022/04/14 01:30:46;;;;;;;2.05;1.85;;;;;19.50;100865.00;;;;2086996;28;20267;-46
2022/04/14 01:31:46;;;;;;;1.97;1.77;;;;;19.50;100868.00;;;;2083612;28;20252;-47
2022/04/14 01:32:47;;;;;;;1.60;1.50;;;;;19.50;100868.00;;;;2079352;28;20574;-47
2022/04/14 01:33:47;;;;;;;2.27;1.70;;;;;19.50;100873.00;;;;2079169;28;20210;-46
2022/04/14 01:34:51;;;;;;;2.53;2.00;;;;;19.50;100873.00;;;;2078834;28;20741;-46
2022/04/14 01:35:51;;;;;;;2.35;1.70;;;;;19.50;100871.00;;;;2077837;28;20698;-46
2022/04/14 01:36:51;;;;;;;2.10;1.77;;;;;19.50;100867.00;;;;2086955;28;20223;-46
2022/04/14 01:37:52;;;;;;;2.00;1.80;;;;;19.50;100873.00;;;;2081511;28;20222;-45
2022/04/14 01:38:52;;;;;;;2.23;1.60;;;;;19.50;100875.00;;;;2078857;28;20245;-46
2022/04/14 01:39:52;;;;;;;1.83;1.53;;;;;19.50;100876.00;;;;2078883;28;20223;-46
2022/04/14 01:40:53;;;;;;;1.67;1.57;;;;;19.50;100869.00;;;;2083608;28;20213;-46
2022/04/14 01:41:53;;;;;;;1.90;1.80;;;;;19.50;100876.00;;;;2087072;28;20209;-47
2022/04/14 01:42:53;;;;;;;1.73;1.63;;;;;19.50;100878.00;;;;2085550;28;20266;-46
2022/04/14 01:43:54;;;;;;;1.80;1.70;;;;;19.50;100878.00;;;;2086146;28;20220;-46
2022/04/14 01:44:54;;;;;;;1.83;1.73;;;;;19.50;100879.00;;;;2082417;28;20249;-45
2022/04/14 01:45:54;;;;;;;2.80;2.07;;;;;19.50;100884.00;;;;2078234;28;20218;-47
2022/04/14 01:46:55;;;;;;;2.63;1.97;;;;;19.50;100880.00;;;;2078814;28;20214;-47
2022/04/14 01:47:55;;;;;;;3.00;2.20;;;;;19.50;100880.00;;;;2078809;28;20300;-46
2022/04/14 01:48:55;;;;;;;2.60;2.40;;;;;19.50;100880.00;;;;2082793;28;20229;-47
2022/04/14 01:49:56;;;;;;;1.67;1.43;;;;;19.50;100879.00;;;;2086329;28;20235;-47
2022/04/14 01:50:56;;;;;;;2.00;1.80;;;;;19.50;100871.00;;;;2086280;28;20324;-46
2022/04/14 01:51:56;;;;;;;2.53;1.83;;;;;19.50;100873.00;;;;2083238;28;20220;-46
2022/04/14 01:52:57;;;;;;;2.20;1.60;;;;;19.50;100873.00;;;;2086965;28;20212;-46
2022/04/14 01:53:57;;;;;;;1.80;1.70;;;;;19.50;100865.00;;;;2087190;28;20236;-46
2022/04/14 01:54:57;;;;;;;2.63;2.10;;;;;19.50;100863.00;;;;2083626;28;20209;-46
2022/04/14 01:55:58;;;;;;;2.07;1.90;;;;;19.50;100879.00;;;;2078280;28;20252;-47
2022/04/14 01:56:58;;;;;;;2.00;1.80;;;;;19.50;100868.00;;;;2078470;28;20205;-46
2022/04/14 01:57:59;;;;;;;1.70;1.60;;;;;19.50;100872.00;;;;2078259;28;20713;-46
2022/04/14 01:58:59;;;;;;;1.40;1.30;;;;;19.50;100868.00;;;;2078565;28;20232;-46
2022/04/14 01:59:59;;;;;;;2.03;1.77;;;;;19.50;100868.00;;;;2078886;28;20210;-46
2022/04/14 02:01:00;;;;;;;1.90;1.80;;;;;19.50;100873.00;;;;2078823;28;20646;-46
2022/04/14 02:02:00;;;;;;;1.67;1.50;;;;;19.50;100869.00;;;;2078852;28;20575;-46
2022/04/14 02:03:00;;;;;;;1.67;1.50;;;;;19.50;100869.00;;;;2078988;28;20595;-46
2022/04/14 02:04:02;;;;;;;2.00;1.80;;;;;19.50;100865.00;;;;2078839;28;20216;-46
2022/04/14 02:05:02;;;;;;;2.05;1.85;;;;;19.50;100861.00;;;;2078551;28;20213;-46
2022/04/14 02:06:03;;;;;;;2.03;1.83;;;;;19.50;100859.00;;;;2076869;28;20210;-47
2022/04/14 02:07:05;;;;;;;2.67;1.90;;;;;19.50;100867.00;;;;2078530;28;20255;-46
2022/04/14 02:08:05;;;;;;;2.28;1.90;;;;;19.50;100868.00;;;;2078755;28;20213;-46
2022/04/14 02:09:06;;;;;;;2.00;1.80;;;;;19.50;100866.00;;;;2078630;28;20263;-46
2022/04/14 02:10:06;;;;;;;2.13;1.80;;;;;19.50;100862.00;;;;2078657;28;20218;-47
2022/04/14 02:11:07;;;;;;;2.87;1.73;;;;;19.50;100877.00;;;;2078550;28;20225;-47
2022/04/14 02:12:07;;;;;;;2.03;1.83;;;;;19.50;100877.00;;;;2078330;28;20267;-47
2022/04/14 02:13:08;;;;;;;2.03;1.83;;;;;19.50;100872.00;;;;2078759;28;20259;-46
2022/04/14 02:14:08;;;;;;;2.30;2.10;;;;;19.50;100879.00;;;;2078833;28;20296;-46
2022/04/14 02:15:09;;;;;;;2.20;2.00;;;;;19.50;100870.00;;;;2079657;28;20244;-46
2022/04/14 02:16:09;;;;;;;1.80;1.70;;;;;19.50;100876.00;;;;2086311;28;20213;-47
2022/04/14 02:17:09;;;;;;;2.03;1.93;;;;;19.50;100870.00;;;;2086675;28;20223;-46
2022/04/14 02:18:10;;;;;;;1.63;1.40;;;;;19.50;100869.00;;;;2079402;28;20210;-46
2022/04/14 02:19:10;;;;;;;1.83;1.63;;;;;19.50;100876.00;;;;2078802;28;20263;-46
2022/04/14 02:20:10;;;;;;;1.97;1.87;;;;;19.50;100877.00;;;;2078830;28;20244;-46
2022/04/14 02:21:11;;;;;;;2.20;2.00;;;;;19.50;100870.00;;;;2078069;28;20225;-47
2022/04/14 02:22:11;;;;;;;2.10;1.90;;;;;19.50;100886.00;;;;2078072;28;20214;-46
2022/04/14 02:23:12;;;;;;;2.23;2.03;;;;;19.50;100869.00;;;;2078454;28;20573;-46
2022/04/14 02:24:12;;;;;;;2.20;1.80;;;;;19.50;100874.00;;;;2078449;28;20218;-46
2022/04/14 02:25:12;;;;;;;2.00;1.80;;;;;19.50;100870.00;;;;2078634;28;20216;-46
2022/04/14 02:26:13;;;;;;;1.73;1.63;;;;;19.50;100875.00;;;;2078138;28;20217;-46
2022/04/14 02:27:13;;;;;;;2.20;2.00;;;;;19.50;100872.00;;;;2078437;28;20217;-46
2022/04/14 02:28:14;;;;;;;2.20;2.00;;;;;19.50;100881.00;;;;2079704;28;20217;-46
2022/04/14 02:29:14;;;;;;;2.08;1.88;;;;;19.50;100880.00;;;;2080893;28;20228;-46
2022/04/14 02:30:15;;;;;;;2.13;1.93;;;;;19.50;100886.00;;;;2078860;28;20649;-46
2022/04/14 02:31:15;;;;;;;1.90;1.80;;;;;19.50;100883.00;;;;2078758;28;20213;-47
2022/04/14 02:32:15;;;;;;;2.87;2.53;;;;;19.50;100874.00;;;;2083793;28;20239;-46
2022/04/14 02:33:16;;;;;;;1.83;1.73;;;;;19.50;100878.00;;;;2086762;28;20209;-47
2022/04/14 02:34:16;;;;;;;2.20;1.90;;;;;19.50;100876.00;;;;2086669;28;20213;-46
2022/04/14 02:35:16;;;;;;;1.70;1.60;;;;;19.50;100826.00;;;;2086235;28;20213;-46
2022/04/14 02:36:17;;;;;;;2.30;1.90;;;;;19.50;100872.00;;;;2086341;28;20228;-47
2022/04/14 02:37:17;;;;;;;2.00;1.73;;;;;19.50;100874.00;;;;2086516;28;20224;-46
2022/04/14 02:38:18;;;;;;;2.03;1.83;;;;;19.50;100871.00;;;;2086794;28;20282;-46
2022/04/14 02:39:18;;;;;;;2.30;1.80;;;;;19.50;100871.00;;;;2079372;28;20221;-47
2022/04/14 02:40:19;;;;;;;2.33;1.77;;;;;19.50;100874.00;;;;2078764;28;20218;-46
2022/04/14 02:41:19;;;;;;;2.37;1.67;;;;;19.50;100869.00;;;;2078573;28;20633;-46
2022/04/14 02:42:19;;;;;;;1.87;1.70;;;;;19.50;100868.00;;;;2078619;28;20217;-46
2022/04/14 02:43:21;;;;;;;2.27;2.07;;;;;19.50;100869.00;;;;2082247;28;20292;-46
2022/04/14 02:44:21;;;;;;;1.92;1.83;;;;;19.50;100872.00;;;;2086406;28;20209;-46
2022/04/14 02:45:22;;;;;;;2.43;2.00;;;;;19.50;100866.00;;;;2085955;28;20586;-47
2022/04/14 02:46:22;;;;;;;3.00;1.90;;;;;19.50;100862.00;;;;2086608;28;20782;-46
2022/04/14 02:47:22;;;;;;;1.77;1.67;;;;;19.50;100862.00;;;;2086496;28;20208;-46
2022/04/14 02:48:23;;;;;;;2.40;2.20;;;;;19.50;100861.00;;;;2086759;28;20898;-46
2022/04/14 02:49:23;;;;;;;1.97;1.70;;;;;19.50;100856.00;;;;2086742;28;20213;-45
2022/04/14 02:50:23;;;;;;;2.03;1.83;;;;;19.50;100844.00;;;;2080681;28;20220;-47
2022/04/14 02:51:24;;;;;;;1.90;1.80;;;;;19.50;100858.00;;;;2094384;28;20212;-46
2022/04/14 02:52:24;;;;;;;2.30;2.07;;;;;19.50;100864.00;;;;2090422;28;20216;-46
2022/04/14 02:53:26;;;;;;;1.70;1.50;;;;;19.50;100865.00;;;;2086859;28;20713;-46
2022/04/14 02:54:26;;;;;;;2.00;1.80;;;;;19.50;100868.00;;;;2086763;28;20651;-47
2022/04/14 02:55:26;;;;;;;1.90;1.70;;;;;19.50;100864.00;;;;2085752;28;20224;-46
2022/04/14 02:56:27;;;;;;;1.80;1.70;;;;;19.50;100870.00;;;;2086439;28;20217;-46
2022/04/14 02:57:27;;;;;;;2.10;1.90;;;;;19.50;100869.00;;;;2085462;28;20217;-47
2022/04/14 02:58:28;;;;;;;1.97;1.80;;;;;19.50;100870.00;;;;2078594;28;20249;-47
2022/04/14 02:59:28;;;;;;;1.98;1.80;;;;;19.50;100871.00;;;;2077931;28;20232;-46
2022/04/14 03:00:29;;;;;;;2.17;2.00;;;;;19.50;100878.00;;;;2077894;28;20981;-46
2022/04/14 03:01:30;;;;;;;2.00;1.80;;;;;19.50;100884.00;;;;2078632;28;20882;-46
2022/04/14 03:02:30;;;;;;;1.75;1.65;;;;;19.50;100868.00;;;;2080633;28;20301;-46
2022/04/14 03:03:30;;;;;;;1.90;1.70;;;;;19.50;100864.00;;;;2086575;28;20205;-46
2022/04/14 03:04:31;;;;;;;1.50;1.40;;;;;19.50;100857.00;;;;2086648;28;20247;-46
2022/04/14 03:05:31;;;;;;;2.43;2.23;;;;;19.50;100854.00;;;;2081509;28;20217;-46
2022/04/14 03:06:32;;;;;;;2.23;2.03;;;;;19.50;100854.00;;;;2078559;28;20698;-46
2022/04/14 03:07:32;;;;;;;2.30;2.10;;;;;19.50;100856.00;;;;2078342;28;20553;-46
2022/04/14 03:08:32;;;;;;;1.83;1.73;;;;;19.50;100854.00;;;;2077896;28;20240;-46
2022/04/14 03:09:33;;;;;;;2.17;1.97;;;;;19.50;100856.00;;;;2084997;28;20201;-46
2022/04/14 03:10:33;;;;;;;1.90;1.80;;;;;19.50;100850.00;;;;2086663;28;20789;-46
2022/04/14 03:11:33;;;;;;;2.20;2.00;;;;;19.50;100858.00;;;;2086777;28;20215;-46
2022/04/14 03:12:43;;;;;;;1.83;1.73;;;;;19.50;100854.00;;;;2086513;28;20236;-46
2022/04/14 03:13:44;;;;;;;2.00;1.90;;;;;19.50;100866.00;;;;2086741;28;20209;-46
2022/04/14 03:14:46;;;;;;;2.80;2.00;;;;;19.50;100863.00;;;;2086373;28;20209;-46
2022/04/14 03:15:49;;;;;;;1.80;1.70;;;;;19.50;100864.00;;;;2085705;28;20294;-47
2022/04/14 03:16:49;;;;;;;2.33;1.95;;;;;19.50;100873.00;;;;2077988;28;20222;-47
2022/04/14 03:17:50;;;;;;;2.30;1.80;;;;;19.50;100866.00;;;;2078029;28;20217;-45
2022/04/14 03:18:50;;;;;;;2.10;1.90;;;;;19.50;100875.00;;;;2081407;28;20221;-46
2022/04/14 03:19:50;;;;;;;1.90;1.70;;;;;19.50;100863.00;;;;2086462;28;20466;-46
2022/04/14 03:20:51;;;;;;;2.20;2.00;;;;;19.50;100863.00;;;;2086637;28;20712;-46
2022/04/14 03:21:52;;;;;;;1.90;1.80;;;;;19.50;100862.00;;;;2087410;28;20677;-46
2022/04/14 03:22:52;;;;;;;2.23;2.03;;;;;19.40;100864.00;;;;2088274;28;20221;-45
2022/04/14 03:23:52;;;;;;;2.27;2.03;;;;;19.50;100855.00;;;;2087259;28;20447;-46
2022/04/14 03:24:55;;;;;;;2.13;1.90;;;;;19.50;100847.00;;;;2079005;28;20294;-46
2022/04/14 03:25:55;;;;;;;2.00;1.80;;;;;19.50;100862.00;;;;2078471;28;20221;-46
2022/04/14 03:26:56;;;;;;;1.90;1.80;;;;;19.50;100849.00;;;;2077534;28;20225;-47
2022/04/14 03:27:56;;;;;;;2.30;2.10;;;;;19.50;100851.00;;;;2079824;28;20243;-46
2022/04/14 03:28:56;;;;;;;2.20;2.00;;;;;19.50;100861.00;;;;2079693;28;20241;-45
2022/04/14 03:29:57;;;;;;;2.63;2.43;;;;;19.50;100867.00;;;;2079260;28;20221;-47
2022/04/14 03:30:57;;;;;;;2.37;2.17;;;;;19.50;100860.00;;;;2079337;28;20238;-46
2022/04/14 03:31:57;;;;;;;2.50;2.30;;;;;19.50;100854.00;;;;2079198;28;20248;-45
2022/04/14 03:32:57;;;;;;;1.60;1.50;;;;;19.50;100864.00;;;;2079012;28;20264;-45
2022/04/14 03:33:58;;;;;;;1.97;1.70;;;;;19.50;100864.00;;;;2079850;28;20634;-45
2022/04/14 03:35:03;;;;;;;2.10;1.67;;;;;19.50;100861.00;;;;2078898;28;20677;-50
2022/04/14 03:36:03;;;;;;;2.50;2.20;;;;;19.50;100863.00;;;;2079343;28;20209;-47
2022/04/14 03:37:04;;;;;;;2.30;2.10;;;;;19.50;100866.00;;;;2087985;28;20461;-46
2022/04/14 03:38:04;;;;;;;2.90;2.30;;;;;19.40;100864.00;;;;2087882;28;20580;-46
2022/04/14 03:39:05;;;;;;;1.73;1.53;;;;;19.50;100863.00;;;;2081268;28;20681;-46
2022/04/14 03:40:06;;;;;;;1.87;1.67;;;;;19.50;100863.00;;;;2087039;28;20208;-46
2022/04/14 03:41:07;;;;;;;2.30;2.10;;;;;19.50;100859.00;;;;2079243;28;20233;-46
2022/04/14 03:42:07;;;;;;;2.08;1.92;;;;;19.50;100857.00;;;;2079151;28;20209;-46
2022/04/14 03:43:08;;;;;;;2.30;2.10;;;;;19.50;100862.00;;;;2080058;28;20228;-46
2022/04/14 03:44:08;;;;;;;2.40;2.20;;;;;19.50;100847.00;;;;2079971;28;20206;-47
2022/04/14 03:45:09;;;;;;;2.30;2.10;;;;;19.50;100857.00;;;;2079584;28;20239;-45
2022/04/14 03:46:09;;;;;;;2.13;1.87;;;;;19.50;100856.00;;;;2078891;28;20214;-46
2022/04/14 03:47:09;;;;;;;2.10;1.90;;;;;19.50;100852.00;;;;2079848;28;20228;-45
2022/04/14 03:48:10;;;;;;;2.10;1.80;;;;;19.50;100857.00;;;;2079481;28;20218;-46
2022/04/14 03:49:11;;;;;;;2.10;1.60;;;;;19.50;100860.00;;;;2087551;28;20243;-46
2022/04/14 03:50:11;;;;;;;2.42;2.22;;;;;19.50;100854.00;;;;2086340;28;20209;-46
2022/04/14 03:51:14;;;;;;;1.97;1.50;;;;;19.40;100849.00;;;;2079574;28;20605;-47
2022/04/14 03:52:14;;;;;;;2.50;2.30;;;;;19.50;100854.00;;;;2079807;28;20679;-46
2022/04/14 03:53:17;;;;;;;1.97;1.77;;;;;19.50;100856.00;;;;2079767;28;20209;-47
2022/04/14 03:54:17;;;;;;;2.03;1.90;;;;;19.50;100860.00;;;;2079139;28;20217;-46
2022/04/14 03:55:18;;;;;;;1.87;1.77;;;;;19.50;100856.00;;;;2078577;28;20260;-47
2022/04/14 03:56:18;;;;;;;1.83;1.73;;;;;19.50;100860.00;;;;2079044;28;20237;-46
2022/04/14 03:57:18;;;;;;;2.00;1.80;;;;;19.50;100858.00;;;;2079627;28;20232;-46
2022/04/14 03:58:19;;;;;;;2.20;2.00;;;;;19.50;100859.00;;;;2079763;28;20749;-46
2022/04/14 03:59:20;;;;;;;2.30;2.00;;;;;19.50;100861.00;;;;2079591;28;20737;-46
2022/04/14 04:00:21;;;;;;;2.30;2.10;;;;;19.50;100861.00;;;;2079691;28;20522;-47
2022/04/14 04:01:21;;;;;;;2.27;2.07;;;;;19.50;100848.00;;;;2079581;28;20287;-47
2022/04/14 04:02:21;;;;;;;2.10;1.90;;;;;19.50;100850.00;;;;2079673;28;20302;-46
2022/04/14 04:03:22;;;;;;;2.10;1.90;;;;;19.50;100853.00;;;;2081954;28;20236;-46
2022/04/14 04:04:23;;;;;;;1.93;1.83;;;;;19.50;100854.00;;;;2083517;28;20226;-46
2022/04/14 04:05:23;;;;;;;1.93;1.83;;;;;19.50;100850.00;;;;2077955;28;20483;-46
2022/04/14 04:06:23;;;;;;;2.17;1.97;;;;;19.50;100861.00;;;;2079604;28;20265;-47
2022/04/14 04:07:24;;;;;;;2.10;1.90;;;;;19.40;100865.00;;;;2079521;28;20233;-47
2022/04/14 04:08:24;;;;;;;2.30;2.10;;;;;19.40;100858.00;;;;2079513;28;20225;-46
2022/04/14 04:09:26;;;;;;;1.90;1.80;;;;;19.40;100862.00;;;;2079539;28;20213;-46
2022/04/14 04:10:27;;;;;;;1.88;1.75;;;;;19.40;100865.00;;;;2079549;28;20575;-47
2022/04/14 04:11:27;;;;;;;2.20;2.00;;;;;19.40;100871.00;;;;2079619;28;20217;-46
2022/04/14 04:12:27;;;;;;;1.87;1.70;;;;;19.50;100862.00;;;;2079365;28;20256;-46
2022/04/14 04:13:27;;;;;;;1.60;1.50;;;;;19.50;100862.00;;;;2078818;28;20217;-46
2022/04/14 04:14:28;;;;;;;2.40;2.00;;;;;19.40;100854.00;;;;2079090;28;20225;-46
2022/04/14 04:15:28;;;;;;;2.20;2.00;;;;;19.40;100851.00;;;;2077961;28;20225;-46
2022/04/14 04:16:28;;;;;;;2.00;1.80;;;;;19.40;100858.00;;;;2079145;28;20368;-46
2022/04/14 04:17:29;;;;;;;2.40;2.20;;;;;19.50;100848.00;;;;2078654;28;20282;-46
2022/04/14 04:18:33;;;;;;;2.40;2.20;;;;;19.40;100859.00;;;;2078790;28;20221;-46
2022/04/14 04:19:33;;;;;;;1.67;1.58;;;;;19.50;100858.00;;;;2079162;28;20714;-45
2022/04/14 04:20:34;;;;;;;2.20;2.00;;;;;19.50;100867.00;;;;2078562;28;20245;-47
2022/04/14 04:21:34;;;;;;;2.13;1.90;;;;;19.50;100861.00;;;;2079508;28;20214;-47
2022/04/14 04:22:34;;;;;;;2.20;2.00;;;;;19.40;100872.00;;;;2079430;28;20217;-47
2022/04/14 04:23:35;;;;;;;2.67;2.17;;;;;19.40;100879.00;;;;2079553;28;20875;-46
2022/04/14 04:24:35;;;;;;;2.10;1.90;;;;;19.40;100874.00;;;;2079625;28;20263;-46
2022/04/14 04:25:36;;;;;;;1.90;1.70;;;;;19.40;100877.00;;;;2077553;28;20762;-51
2022/04/14 04:26:37;;;;;;;2.50;2.30;;;;;19.40;100882.00;;;;2079451;28;20220;-46
2022/04/14 04:27:37;;;;;;;2.33;2.13;;;;;19.40;100885.00;;;;2078691;28;20220;-46
2022/04/14 04:28:37;;;;;;;1.93;1.83;;;;;19.40;100886.00;;;;2079260;28;20864;-46
2022/04/14 04:29:38;;;;;;;2.57;2.37;;;;;19.40;100886.00;;;;2086943;28;20221;-47
2022/04/14 04:30:38;;;;;;;2.33;2.13;;;;;19.40;100888.00;;;;2087667;28;20205;-46
2022/04/14 04:31:38;;;;;;;2.40;1.97;;;;;19.40;100890.00;;;;2087511;28;20209;-47
2022/04/14 04:32:39;;;;;;;2.47;2.27;;;;;19.40;100894.00;;;;2087367;28;20251;-46
2022/04/14 04:33:39;;;;;;;2.10;1.90;;;;;19.40;100893.00;;;;2080373;28;20305;-46
2022/04/14 04:34:39;;;;;;;2.10;1.87;;;;;19.40;100889.00;;;;2083875;28;20208;-47
2022/04/14 04:35:40;;;;;;;2.33;2.13;;;;;19.50;100894.00;;;;2086810;28;20240;-46
2022/04/14 04:36:40;;;;;;;2.33;2.10;;;;;19.50;100891.00;;;;2087742;28;20209;-46
2022/04/14 04:37:41;;;;;;;2.40;1.90;;;;;19.40;100894.00;;;;2079989;28;20214;-46
2022/04/14 04:38:42;;;;;;;2.40;2.20;;;;;19.40;100889.00;;;;2079134;28;20240;-46
2022/04/14 04:39:42;;;;;;;2.30;2.10;;;;;19.40;100892.00;;;;2079426;28;20209;-46
2022/04/14 04:40:42;;;;;;;2.87;2.20;;;;;19.40;100891.00;;;;2079181;28;20231;-46
2022/04/14 04:41:43;;;;;;;2.30;2.10;;;;;19.50;100892.00;;;;2079039;28;20590;-47
2022/04/14 04:42:43;;;;;;;2.00;1.80;;;;;19.50;100890.00;;;;2079001;28;20212;-47
2022/04/14 04:43:43;;;;;;;2.43;2.23;;;;;19.50;100894.00;;;;2078778;28;20240;-46
2022/04/14 04:44:44;;;;;;;2.13;1.93;;;;;19.40;100892.00;;;;2078727;28;20289;-46
2022/04/14 04:45:44;;;;;;;4.00;2.50;;;;;19.40;100893.00;;;;2077890;28;20209;-46
2022/04/14 04:46:44;;;;;;;2.07;1.87;;;;;19.40;100894.00;;;;2078594;28;20224;-46
2022/04/14 04:47:45;;;;;;;2.40;2.00;;;;;19.40;100894.00;;;;2079608;28;20213;-45
2022/04/14 04:48:45;;;;;;;2.90;2.07;;;;;19.40;100903.00;;;;2086643;28;20224;-46
2022/04/14 04:49:46;;;;;;;2.43;2.23;;;;;19.40;100893.00;;;;2086890;28;20290;-46
2022/04/14 04:50:48;;;;;;;2.33;2.13;;;;;19.40;100898.00;;;;2082455;28;20206;-46
2022/04/14 04:51:49;;;;;;;2.33;2.13;;;;;19.50;100907.00;;;;2079087;28;20213;-47
2022/04/14 04:52:49;;;;;;;2.27;2.07;;;;;19.50;100906.00;;;;2079237;28;20214;-46
2022/04/14 04:53:49;;;;;;;2.50;2.30;;;;;19.40;100902.00;;;;2079322;28;20241;-46
2022/04/14 04:54:50;;;;;;;2.67;2.47;;;;;19.40;100913.00;;;;2078714;28;20217;-46
2022/04/14 04:55:50;;;;;;;2.10;1.90;;;;;19.50;100910.00;;;;2077813;28;20205;-46
2022/04/14 04:56:51;;;;;;;3.07;2.23;;;;;19.50;100919.00;;;;2078653;28;20279;-46
2022/04/14 04:57:51;;;;;;;2.07;1.87;;;;;19.50;100912.00;;;;2078613;28;20217;-46
2022/04/14 04:58:51;;;;;;;2.33;2.13;;;;;19.40;100918.00;;;;2078754;28;20209;-46
2022/04/14 04:59:52;;;;;;;2.40;2.20;;;;;19.40;100917.00;;;;2078679;28;20256;-51